Time;durP1;ratioP1;P1;durP2;ratioP2;P2;SDS_P1;SDS_P2;PMS_P1;PMS_P2;Temp;Humidity;BMP_temperature;BMP_pressure;BME280_temperature;BME280_humidity;BME280_pressure;Samples;Min_cycle;Max_cycle;Signal;HPM_P1;HPM_P2
2023/04/16 00:02:06;;;;;;;19.60;15.17;;;;;;;6.47;100.00;95499.44;6078575;23;20625;-83
2023/04/16 00:04:37;;;;;;;22.60;16.67;;;;;;;6.43;100.00;95493.69;6077635;23;20167;-83
2023/04/16 00:07:08;;;;;;;24.07;16.70;;;;;;;6.53;100.00;95491.97;6124882;23;20645;-83
2023/04/16 00:09:39;;;;;;;23.13;16.40;;;;;;;6.53;100.00;95491.97;6103303;23;20164;-83
2023/04/16 00:12:08;;;;;;;23.90;16.77;;;;;;;6.46;100.00;95493.44;6102135;23;20613;-82
2023/04/16 00:14:36;;;;;;;21.10;16.73;;;;;;;6.50;100.00;95497.41;6129492;23;20159;-82
2023/04/16 00:17:06;;;;;;;23.17;16.30;;;;;;;6.32;100.00;95496.31;6186378;23;20178;-82
2023/04/16 00:19:31;;;;;;;24.17;18.50;;;;;;;6.40;100.00;95496.50;6186766;23;20162;-83
2023/04/16 00:22:00;;;;;;;21.27;16.67;;;;;;;6.47;100.00;95499.44;6186869;23;20166;-83
2023/04/16 00:24:27;;;;;;;22.90;17.13;;;;;;;6.50;100.00;95502.56;6163634;23;20667;-82
2023/04/16 00:26:53;;;;;;;23.77;18.03;;;;;;;6.55;100.00;95503.97;6187058;23;20228;-83
2023/04/16 00:29:26;;;;;;;20.77;16.43;;;;;;;6.53;100.00;95496.34;6187219;23;20184;-81
2023/04/16 00:31:56;;;;;;;22.20;16.40;;;;;;;6.49;100.00;95508.66;6189285;23;20131;-82
2023/04/16 00:34:24;;;;;;;27.87;17.20;;;;;;;6.43;100.00;95505.75;6189066;23;20166;-82
2023/04/16 00:36:52;;;;;;;18.60;14.60;;;;;;;6.57;100.00;95505.47;6187596;23;20181;-83
2023/04/16 00:39:20;;;;;;;36.30;16.20;;;;;;;6.62;100.00;95513.66;6163122;23;20240;-82
2023/04/16 00:41:48;;;;;;;18.23;14.90;;;;;;;6.75;100.00;95506.56;6187884;23;20169;-82
2023/04/16 00:44:19;;;;;;;19.43;14.23;;;;;;;6.60;100.00;95504.41;6187008;23;20903;-84
2023/04/16 00:46:45;;;;;;;16.30;13.97;;;;;;;6.51;100.00;95503.38;6162920;23;20178;-84
2023/04/16 00:49:16;;;;;;;18.03;13.57;;;;;;;6.59;100.00;95508.75;6206492;23;20225;-85
2023/04/16 00:51:44;;;;;;;18.60;13.20;;;;;;;6.60;100.00;95501.81;6193713;23;20163;-84
2023/04/16 00:54:15;;;;;;;17.53;12.93;;;;;;;6.39;100.00;95496.63;6161715;23;20159;-84
2023/04/16 00:56:42;;;;;;;17.07;13.57;;;;;;;6.37;100.00;95503.69;6161470;23;20259;-84
2023/04/16 00:59:11;;;;;;;16.67;12.97;;;;;;;6.42;100.00;95509.28;6161626;23;20182;-85
2023/04/16 01:01:48;;;;;;;15.77;13.43;;;;;;;6.61;100.00;95495.72;6187461;23;20158;-85
2023/04/16 01:04:23;;;;;;;15.20;12.10;;;;;;;6.52;100.00;95508.41;6188093;23;20340;-86
2023/04/16 01:07:35;;;;;;;12.53;10.67;;;;;;;6.47;100.00;95502.00;6186333;23;20185;-82
2023/04/16 01:10:17;;;;;;;13.63;10.93;;;;;;;6.51;100.00;95511.94;6102305;23;20640;-83
2023/04/16 01:12:52;;;;;;;13.53;10.87;;;;;;;6.48;100.00;95509.63;6099734;23;20187;-83
2023/04/16 01:15:17;;;;;;;15.10;11.57;;;;;;;6.53;100.00;95507.47;6102369;23;20210;-82
2023/04/16 01:17:49;;;;;;;16.30;11.90;;;;;;;6.44;100.00;95515.13;6076273;23;20196;-82
2023/04/16 01:20:18;;;;;;;12.87;10.57;;;;;;;6.50;100.00;95512.06;6077495;23;20231;-83
2023/04/16 01:22:43;;;;;;;15.73;11.73;;;;;;;6.49;100.00;95519.00;6078813;23;20231;-83
2023/04/16 01:25:13;;;;;;;14.27;11.30;;;;;;;6.46;100.00;95511.50;6100757;23;20164;-83
2023/04/16 01:27:38;;;;;;;12.20;10.57;;;;;;;6.52;100.00;95517.91;6098337;23;20191;-83
2023/04/16 01:30:07;;;;;;;13.40;9.67;;;;;;;6.55;100.00;95509.94;6126231;23;20174;-83
2023/04/16 01:32:33;;;;;;;13.63;8.93;;;;;;;6.51;100.00;95511.94;6100856;23;20793;-83
2023/04/16 01:34:58;;;;;;;11.20;9.03;;;;;;;6.46;100.00;95511.50;6100371;23;20164;-84
2023/04/16 01:37:40;;;;;;;14.90;9.33;;;;;;;6.60;100.00;95514.72;6075719;23;20679;-83
2023/04/16 01:40:15;;;;;;;10.23;8.27;;;;;;;6.61;100.00;95519.75;6076973;23;20160;-84
2023/04/16 01:42:46;;;;;;;8.97;7.93;;;;;;;6.46;100.00;95516.66;6125031;23;20167;-84
2023/04/16 01:45:18;;;;;;;8.97;7.03;;;;;;;6.45;100.00;95525.34;6077892;23;20166;-84
2023/04/16 01:48:09;;;;;;;10.07;7.53;;;;;;;6.43;100.00;95516.91;6181324;23;20730;-84
2023/04/16 01:50:37;;;;;;;13.47;8.80;;;;;;;6.41;100.00;95516.19;6165333;23;20154;-84
2023/04/16 01:53:27;;;;;;;10.13;8.70;;;;;;;6.36;100.00;95518.34;6162453;23;20167;-84
2023/04/16 01:56:07;;;;;;;12.80;9.77;;;;;;;6.39;100.00;95518.09;6185229;23;20166;-84
2023/04/16 01:58:48;;;;;;;11.83;9.57;;;;;;;6.48;100.00;95525.09;6194259;23;20197;-85
2023/04/16 02:01:33;;;;;;;13.73;10.20;;;;;;;6.34;100.00;95516.81;6188366;23;20158;-84
2023/04/16 02:04:09;;;;;;;13.30;9.80;;;;;;;6.38;100.00;95515.66;6186604;23;20537;-85
2023/04/16 02:06:57;;;;;;;12.47;9.77;;;;;;;6.33;100.00;95518.56;6158872;23;20269;-85
2023/04/16 02:09:54;;;;;;;14.10;10.37;;;;;;;6.28;100.00;95512.97;6161811;23;20166;-83
2023/04/16 02:12:32;;;;;;;15.13;10.10;;;;;;;6.52;100.00;95523.88;6185463;23;20158;-84
2023/04/16 02:15:06;;;;;;;18.93;11.53;;;;;;;6.45;100.00;95520.19;6162905;23;20166;-84
2023/04/16 02:17:55;;;;;;;14.27;10.70;;;;;;;6.40;100.00;95529.22;6180773;23;20182;-84
2023/04/16 02:20:41;;;;;;;18.67;11.97;;;;;;;6.53;100.00;95533.25;6187904;23;20158;-84
2023/04/16 02:27:09;;;;;;;16.37;11.27;;;;;;;6.45;100.00;95537.44;6114481;23;20156;-84
2023/04/16 02:29:39;;;;;;;16.27;11.63;;;;;;;6.35;100.00;95534.75;6092855;23;20173;-84
2023/04/16 02:32:27;;;;;;;15.93;11.33;;;;;;;6.45;100.00;95533.09;6070252;23;20648;-84
2023/04/16 02:35:30;;;;;;;14.63;10.73;;;;;;;6.42;100.00;95533.31;6071215;23;20164;-83
2023/04/16 02:38:10;;;;;;;17.33;12.27;;;;;;;6.35;100.00;95532.16;6071113;23;20700;-83
2023/04/16 02:40:59;;;;;;;19.77;12.80;;;;;;;6.39;100.00;95530.16;6071222;23;20239;-83
2023/04/16 02:43:37;;;;;;;19.73;13.77;;;;;;;6.24;100.00;95543.34;6050571;23;20622;-84
2023/04/16 02:52:31;;;;;;;27.00;17.63;;;;;;;6.30;100.00;95533.47;6076832;23;20164;-83
2023/04/16 02:58:28;;;;;;;31.70;19.43;;;;;;;6.31;100.00;95530.78;5991502;23;20196;-84
2023/04/16 03:01:17;;;;;;;70.17;21.07;;;;;;;6.19;100.00;95531.75;5950541;24;20164;-84
2023/04/16 03:04:02;;;;;;;32.93;20.60;;;;;;;6.19;100.00;95536.91;5947009;23;20163;-82
2023/04/16 03:06:32;;;;;;;34.13;20.67;;;;;;;6.31;100.00;95535.94;5987072;23;20194;-83
2023/04/16 03:09:17;;;;;;;31.83;20.23;;;;;;;6.16;100.00;95543.13;5985370;23;20170;-83
2023/04/16 03:12:26;;;;;;;27.57;18.60;;;;;;;6.21;100.00;95543.59;5985992;23;20166;-83
2023/04/16 03:14:57;;;;;;;25.63;17.63;;;;;;;6.38;100.00;95534.50;6011126;23;20162;-84
2023/04/16 03:17:38;;;;;;;31.07;19.93;;;;;;;6.39;100.00;95543.88;5986577;23;20748;-83
2023/04/16 03:20:23;;;;;;;32.17;20.00;;;;;;;6.38;100.00;95538.84;5986303;23;20161;-84
2023/04/16 03:22:57;;;;;;;31.10;20.30;;;;;;;6.49;100.00;95549.13;5987820;23;20230;-84
2023/04/16 03:25:58;;;;;;;26.87;19.33;;;;;;;6.34;100.00;95548.56;5964112;23;20158;-83
2023/04/16 03:28:48;;;;;;;28.23;19.43;;;;;;;6.42;100.00;95553.94;6001373;23;20161;-83
2023/04/16 03:31:50;;;;;;;28.60;18.50;;;;;;;6.50;100.00;95549.00;6014584;23;20524;-83
2023/04/16 03:35:11;;;;;;;26.13;18.03;;;;;;;6.40;100.00;95549.88;5989989;23;20532;-83
2023/04/16 03:41:02;;;;;;;21.43;15.40;;;;;;;6.33;100.00;95554.69;6039111;23;20201;-84
2023/04/16 03:43:44;;;;;;;;;;;;;;;;;;;;;
2023/04/16 03:50:23;;;;;;;21.17;14.40;;;;;;;6.39;100.00;95568.88;5982699;23;20167;-83
2023/04/16 03:53:26;;;;;;;17.73;12.53;;;;;;;6.47;100.00;95556.19;5932163;24;20259;-84
2023/04/16 03:56:18;;;;;;;16.70;12.20;;;;;;;6.39;100.00;95561.94;5925743;24;20515;-85
2023/04/16 03:59:13;;;;;;;16.77;12.60;;;;;;;6.46;100.00;95559.69;5953002;24;20220;-83
2023/04/16 04:02:30;;;;;;;20.30;13.27;;;;;;;6.38;100.00;95570.63;5957146;23;20691;-84
2023/04/16 04:05:28;;;;;;;;;;;;;;;;;;;;;
2023/04/16 04:08:24;;;;;;;16.40;11.97;;;;;;;6.40;100.00;95571.31;6065877;23;20346;-84
2023/04/16 04:12:00;;;;;;;;;;;;;;;;;;;;;
2023/04/16 04:15:19;;;;;;;;;;;;;;;;;;;;;
2023/04/16 04:27:36;;;;;;;21.73;13.93;;;;;;;6.20;100.00;95577.22;6008247;23;20178;-83
2023/04/16 04:30:03;;;;;;;25.17;15.87;;;;;;;6.23;100.00;95579.56;6038407;23;20190;-83
2023/04/16 04:32:32;;;;;;;25.27;16.63;;;;;;;6.40;100.00;95581.63;6038540;23;20196;-84
2023/04/16 04:35:11;;;;;;;43.47;19.33;;;;;;;6.29;100.00;95584.25;5990581;23;20166;-84
2023/04/16 04:37:47;;;;;;;47.83;18.97;;;;;;;6.25;100.00;95596.53;6035569;23;20298;-83
2023/04/16 04:43:24;;;;;;;45.23;20.03;;;;;;;6.15;100.00;95602.53;6056669;23;20164;-83
2023/04/16 04:46:05;;;;;;;93.10;21.30;;;;;;;6.21;100.00;95596.91;5990647;23;20162;-83
2023/04/16 04:48:33;;;;;;;91.93;20.83;;;;;;;6.19;100.00;95596.22;5991656;23;20150;-83
2023/04/16 04:54:03;;;;;;;52.67;23.50;;;;;;;6.25;100.00;95608.63;6018939;23;20158;-83
2023/04/16 04:56:37;;;;;;;102.13;22.50;;;;;;;6.27;100.00;95606.72;5990703;23;20209;-83
2023/04/16 04:59:22;;;;;;;144.83;28.60;;;;;;;6.22;100.00;95617.41;6176016;23;20711;-83
2023/04/16 05:02:08;;;;;;;110.33;27.60;;;;;;;6.30;100.00;95610.84;6184735;23;20143;-83
2023/04/16 05:04:46;;;;;;;203.17;29.43;;;;;;;6.29;100.00;95615.19;6185927;23;20158;-83
2023/04/16 05:07:20;;;;;;;93.73;24.23;;;;;;;6.25;100.00;95619.75;6184550;23;20244;-84
2023/04/16 05:10:01;;;;;;;309.70;35.87;;;;;;;6.01;100.00;95625.97;6186372;23;20600;-83
2023/04/16 05:12:40;;;;;;;210.17;31.23;;;;;;;6.26;100.00;95620.56;6187392;23;20186;-83
2023/04/16 05:15:28;;;;;;;119.80;26.10;;;;;;;6.22;100.00;95625.16;6185820;23;21025;-83
2023/04/16 05:18:32;;;;;;;167.90;28.13;;;;;;;6.16;100.00;95635.13;6158779;23;20218;-83
2023/04/16 05:21:08;;;;;;;256.60;31.97;;;;;;;6.23;100.00;95633.72;6207505;23;20162;-83
2023/04/16 05:24:41;;;;;;;;;;;;;;;;;;;;;
2023/04/16 05:27:52;;;;;;;82.90;24.10;;;;;;;6.33;100.00;95636.41;6182654;23;20179;-84
2023/04/16 05:30:56;;;;;;;560.40;49.73;;;;;;;6.19;100.00;95640.06;6183060;23;20486;-83
2023/04/16 05:33:22;;;;;;;406.43;37.10;;;;;;;6.32;100.00;95639.91;6043275;23;20165;-85
2023/04/16 05:35:47;;;;;;;439.03;46.80;;;;;;;6.09;100.00;95646.84;6015593;23;20180;-83
2023/04/16 05:38:15;;;;;;;179.47;30.43;;;;;;;6.19;100.00;95651.19;6064022;23;20201;-83
2023/04/16 05:40:53;;;;;;;369.33;41.10;;;;;;;6.11;100.00;95650.16;6040144;23;20161;-83
2023/04/16 05:43:18;;;;;;;93.07;26.03;;;;;;;6.22;100.00;95655.28;6016226;23;20161;-84
2023/04/16 05:45:44;;;;;;;287.43;35.57;;;;;;;5.97;100.00;95653.75;6040769;23;20196;-82
2023/04/16 05:48:09;;;;;;;351.60;39.50;;;;;;;5.97;100.00;95657.16;6016333;23;20177;-81
2023/04/16 05:50:35;;;;;;;442.23;43.97;;;;;;;6.13;100.00;95661.16;6037239;23;20161;-83
2023/04/16 05:53:09;;;;;;;287.20;34.33;;;;;;;6.18;100.00;95661.59;6038981;23;20149;-83
2023/04/16 05:55:50;;;;;;;568.87;49.80;;;;;;;6.08;100.00;95663.25;6039115;23;20168;-82
2023/04/16 05:58:16;;;;;;;608.60;51.77;;;;;;;6.13;100.00;95667.13;6019093;23;20705;-83
2023/04/16 06:00:43;;;;;;;329.80;38.47;;;;;;;6.15;100.00;95678.13;6015744;23;20173;-82
2023/04/16 06:03:09;;;;;;;157.37;29.07;;;;;;;6.19;100.00;95676.16;6039890;23;20184;-82
2023/04/16 06:05:38;;;;;;;754.73;61.33;;;;;;;6.08;100.00;95676.13;6039882;23;20506;-83
2023/04/16 06:08:03;;;;;;;119.67;27.50;;;;;;;6.16;100.00;95679.78;6039749;23;20177;-83
2023/04/16 06:10:29;;;;;;;369.33;39.43;;;;;;;6.13;100.00;95686.94;6103410;23;20202;-82
2023/04/16 06:12:55;;;;;;;172.23;29.80;;;;;;;6.16;100.00;95679.78;6182333;23;20209;-83
2023/04/16 06:15:22;;;;;;;178.57;32.27;;;;;;;6.12;100.00;95677.56;6152546;23;20162;-83
2023/04/16 06:17:48;;;;;;;131.93;30.30;;;;;;;6.08;100.00;95683.88;6128383;23;20179;-83
2023/04/16 06:20:14;;;;;;;183.10;29.80;;;;;;;6.02;100.00;95685.19;6153326;23;20203;-83
2023/04/16 06:22:39;;;;;;;58.00;25.30;;;;;;;6.08;100.00;95681.28;6128469;23;20163;-83
2023/04/16 06:25:05;;;;;;;340.03;40.57;;;;;;;6.06;100.00;95681.41;6128719;23;20163;-81
2023/04/16 06:27:30;;;;;;;68.97;25.53;;;;;;;6.19;100.00;95683.91;6150650;23;20182;-82
2023/04/16 06:29:56;;;;;;;41.40;23.03;;;;;;;6.17;100.00;95683.16;6153860;23;20159;-80
2023/04/16 06:32:21;;;;;;;39.07;22.07;;;;;;;6.26;100.00;95687.63;6153981;23;20213;-80
2023/04/16 06:34:47;;;;;;;44.57;24.37;;;;;;;6.28;100.00;95690.94;6154052;23;20159;-80
2023/04/16 06:37:12;;;;;;;41.40;24.53;;;;;;;6.24;100.00;95690.31;6152593;23;20175;-81
2023/04/16 06:39:37;;;;;;;36.17;21.57;;;;;;;6.20;100.00;95698.44;6153471;23;20679;-82
2023/04/16 06:42:03;;;;;;;34.97;21.80;;;;;;;6.24;100.00;95692.09;6154262;23;20652;-81
2023/04/16 06:44:28;;;;;;;37.47;21.77;;;;;;;6.03;100.00;95691.16;6155970;23;20151;-81
2023/04/16 06:46:53;;;;;;;41.13;23.07;;;;;;;6.20;100.00;95691.50;6167370;23;20246;-79
2023/04/16 06:49:20;;;;;;;42.10;24.67;;;;;;;6.18;100.00;95700.28;6157118;23;20151;-80
2023/04/16 06:51:45;;;;;;;38.53;22.80;;;;;;;6.02;100.00;95695.50;6182203;23;20175;-79
2023/04/16 06:54:10;;;;;;;38.07;24.13;;;;;;;6.17;100.00;95696.06;6181860;23;20151;-80
2023/04/16 06:56:36;;;;;;;42.27;24.30;;;;;;;6.17;100.00;95694.31;6180746;23;20178;-78
2023/04/16 06:59:02;;;;;;;36.83;20.63;;;;;;;6.20;100.00;95696.66;6180769;23;20186;-78
2023/04/16 07:04:03;;;;;;;36.43;21.57;;;;;;;6.29;100.00;95700.31;6169850;23;20210;-81
2023/04/16 07:06:28;;;;;;;39.07;22.57;;;;;;;6.24;100.00;95703.22;6128555;23;20195;-82
2023/04/16 07:08:53;;;;;;;32.50;21.20;;;;;;;6.30;100.00;95706.28;6129320;23;20565;-81
2023/04/16 07:11:19;;;;;;;36.77;22.17;;;;;;;6.27;100.00;95711.66;6129495;23;20221;-81
2023/04/16 07:13:45;;;;;;;35.17;22.37;;;;;;;6.29;100.00;95707.22;6128547;23;20163;-82
2023/04/16 07:16:10;;;;;;;33.73;21.53;;;;;;;6.22;100.00;95709.44;6127337;23;20476;-81
2023/04/16 07:18:36;;;;;;;34.17;20.80;;;;;;;6.34;100.00;95699.94;6128349;23;20179;-82
2023/04/16 07:21:01;;;;;;;34.60;21.37;;;;;;;6.42;100.00;95708.72;6103587;23;20167;-81
2023/04/16 07:23:31;;;;;;;33.53;21.13;;;;;;;6.37;100.00;95705.69;6126717;23;20159;-82
2023/04/16 07:25:56;;;;;;;34.03;19.93;;;;;;;6.35;100.00;95707.53;6101943;23;20253;-82
2023/04/16 07:28:31;;;;;;;33.13;19.13;;;;;;;6.46;100.00;95715.31;6102610;23;20748;-82
2023/04/16 08:12:31;;;;;;;29.60;17.83;;;;;;;6.67;100.00;95748.13;6157253;23;20189;-83
2023/04/16 08:41:41;;;;;;;25.53;17.23;;;;;;;6.98;100.00;95773.19;6178081;23;20216;-83
2023/04/16 08:46:59;;;;;;;27.63;17.60;;;;;;;7.12;100.00;95777.28;6099374;23;20180;-82
2023/04/16 08:49:30;;;;;;;26.93;17.17;;;;;;;7.01;100.00;95782.47;6119777;23;20238;-82
2023/04/16 08:52:03;;;;;;;26.13;16.07;;;;;;;6.90;100.00;95780.72;6095736;23;20163;-84
2023/04/16 08:54:38;;;;;;;25.57;16.30;;;;;;;7.03;100.00;95786.56;6121444;23;20951;-83
2023/04/16 08:57:07;;;;;;;25.10;16.50;;;;;;;7.13;100.00;95784.06;6098036;23;20218;-82
2023/04/16 08:59:37;;;;;;;24.20;16.67;;;;;;;7.08;100.00;95788.78;6123093;23;20171;-83
2023/04/16 09:02:06;;;;;;;25.30;16.43;;;;;;;7.02;100.00;95790.09;6122310;23;20160;-83
2023/04/16 09:04:31;;;;;;;24.93;15.07;;;;;;;6.99;100.00;95798.06;6123589;23;20258;-83
2023/04/16 09:56:05;;;;;;;28.23;17.70;;;;;;;7.15;100.00;95815.75;6172607;23;20213;-80
2023/04/16 09:59:16;;;;;;;25.17;17.07;;;;;;;7.11;100.00;95816.94;6193216;23;20616;-86
2023/04/16 10:02:14;;;;;;;25.87;17.63;;;;;;;7.03;100.00;95822.72;6166964;23;20162;-82
2023/04/16 10:04:50;;;;;;;26.80;16.83;;;;;;;7.32;100.00;95820.41;6218082;23;20142;-83
2023/04/16 10:07:16;;;;;;;25.07;16.83;;;;;;;7.27;100.00;95824.31;6167133;23;20185;-83
2023/04/16 10:09:42;;;;;;;25.23;17.77;;;;;;;7.32;100.00;95820.41;6218546;23;20554;-82
2023/04/16 10:12:08;;;;;;;27.93;16.57;;;;;;;7.31;100.00;95825.72;6187533;23;20158;-83
2023/04/16 10:14:33;;;;;;;25.53;16.87;;;;;;;7.28;100.00;95831.13;6215144;23;20169;-81
2023/04/16 10:16:59;;;;;;;25.77;17.00;;;;;;;7.36;100.00;95832.16;6165489;23;20773;-81
2023/04/16 10:19:26;;;;;;;25.13;16.00;;;;;;;7.36;100.00;95832.16;6217694;23;20196;-84
2023/04/16 10:21:54;;;;;;;25.17;16.03;;;;;;;7.44;100.00;95826.41;6167657;23;20597;-83
2023/04/16 10:24:20;;;;;;;24.37;17.10;;;;;;;7.52;100.00;95839.53;6215103;23;20177;-84
2023/04/16 10:26:46;;;;;;;23.60;16.13;;;;;;;7.55;100.00;95834.13;6191287;23;20202;-83
2023/04/16 10:29:12;;;;;;;27.57;17.97;;;;;;;7.47;100.00;95840.84;6216401;23;20162;-83
2023/04/16 10:31:38;;;;;;;35.50;23.87;;;;;;;7.43;100.00;95836.88;6166965;23;20165;-82
2023/04/16 10:34:04;;;;;;;57.70;40.23;;;;;;;7.39;100.00;95844.00;6164425;23;20261;-82
2023/04/16 10:36:30;;;;;;;29.80;22.10;;;;;;;7.45;100.00;95838.38;6165665;23;20182;-83
2023/04/16 10:38:58;;;;;;;24.60;17.37;;;;;;;7.48;100.00;95838.13;6162687;23;20208;-83
2023/04/16 10:41:27;;;;;;;23.03;15.77;;;;;;;7.52;100.00;95843.88;6163215;23;20186;-83
2023/04/16 10:43:52;;;;;;;24.73;15.63;;;;;;;7.63;100.00;95843.84;6188161;23;20363;-83
2023/04/16 10:46:23;;;;;;;24.50;18.53;;;;;;;7.56;100.00;95845.28;6188402;23;20189;-83
2023/04/16 10:48:51;;;;;;;27.40;17.27;;;;;;;7.51;100.00;95837.91;6162618;23;20154;-82
2023/04/16 10:51:24;;;;;;;25.63;18.53;;;;;;;7.38;100.00;95850.94;6160945;23;20154;-83
2023/04/16 10:53:50;;;;;;;30.37;23.13;;;;;;;7.42;100.00;95846.38;6187946;23;20162;-83
2023/04/16 10:56:22;;;;;;;54.60;45.30;;;;;;;7.48;100.00;95843.28;6186260;23;20284;-83
2023/04/16 10:59:06;;;;;;;34.30;27.13;;;;;;;7.53;100.00;95830.84;6185499;23;20162;-84
2023/04/16 11:18:46;;;;;;;23.07;14.40;;;;;;;7.50;100.00;95843.97;6169566;23;20226;-82
2023/04/16 11:21:18;;;;;;;21.13;15.10;;;;;;;7.42;100.00;95846.38;6167572;23;20606;-86
2023/04/16 11:24:41;;;;;;;;;;;;;;;;;;;;;
2023/04/16 11:27:49;;;;;;;22.90;14.83;;;;;;;7.76;100.00;95834.16;6118849;23;20204;-83
2023/04/16 11:40:31;;;;;;;21.30;14.40;;;;;;;7.58;100.00;95848.53;6040122;23;20226;-84
2023/04/16 11:43:48;;;;;;;20.07;14.83;;;;;;;7.57;100.00;95842.56;6037496;23;20168;-85
2023/04/16 11:53:57;;;;;;;17.83;12.80;;;;;;;7.80;100.00;95852.84;5924913;24;20202;-84
2023/04/16 11:56:54;;;;;;;15.70;9.87;;;;;;;7.75;100.00;95849.78;5901815;24;20256;-83
2023/04/16 12:04:07;;;;;;;;;;;;;;;;;;;;;
2023/04/16 12:10:33;;;;;;;;;;;;;;;;;;;;;
2023/04/16 12:45:53;;;;;;;15.20;10.40;;;;;;;7.42;100.00;95867.06;6184791;23;20704;-83
2023/04/16 12:55:28;;;;;;;14.83;10.47;;;;;;;7.62;100.00;95871.47;6216903;23;20256;-86
2023/04/16 13:05:11;;;;;;;;;;;;;;;;;;;;;
2023/04/16 13:11:50;;;;;;;;;;;;;;;;;;;;;
2023/04/16 13:18:16;;;;;;;15.47;10.23;;;;;;;7.65;100.00;95875.56;6006029;23;20218;-85
2023/04/16 13:21:15;;;;;;;17.20;13.90;;;;;;;7.76;100.00;95869.53;5984155;23;20528;-84
2023/04/16 13:23:40;;;;;;;14.13;11.77;;;;;;;7.65;100.00;95868.63;6006645;23;20629;-81
2023/04/16 13:26:05;;;;;;;11.83;9.97;;;;;;;7.74;100.00;95861.06;5982319;23;20162;-82
2023/04/16 13:28:44;;;;;;;13.03;9.43;;;;;;;7.70;100.00;95867.44;5983402;23;20223;-81
2023/04/16 13:31:20;;;;;;;12.23;8.93;;;;;;;7.56;100.00;95864.19;5985589;23;20162;-81
2023/04/16 13:33:57;;;;;;;14.93;11.40;;;;;;;7.62;100.00;95871.47;5983624;23;20636;-81
2023/04/16 13:36:30;;;;;;;12.83;11.27;;;;;;;7.62;100.00;95879.22;5960304;23;20190;-81
2023/04/16 13:39:10;;;;;;;24.50;21.87;;;;;;;7.74;100.00;95869.66;5983317;23;20286;-81
2023/04/16 13:41:54;;;;;;;16.20;14.50;;;;;;;7.65;100.00;95870.38;6004476;23;20173;-81
2023/04/16 13:44:22;;;;;;;23.87;21.63;;;;;;;7.63;100.00;95874.88;6058816;23;20179;-82
2023/04/16 13:47:20;;;;;;;30.30;27.20;;;;;;;7.66;100.00;95872.84;6063001;23;20182;-82
2023/04/16 13:49:58;;;;;;;17.73;15.93;;;;;;;7.72;100.00;95873.31;6183469;23;20158;-82
2023/04/16 13:52:44;;;;;;;12.40;10.40;;;;;;;7.60;100.00;95875.94;6156882;23;20163;-82
2023/04/16 13:55:25;;;;;;;14.93;10.67;;;;;;;7.55;100.00;95870.28;6182759;23;20163;-82
2023/04/16 13:58:11;;;;;;;;;;;;;;;;;;;;;
2023/04/16 14:00:56;;;;;;;16.20;12.77;;;;;;;7.59;100.00;95874.25;6186734;23;20956;-81
2023/04/16 14:03:35;;;;;;;15.50;11.70;;;;;;;7.58;100.00;95880.38;6213303;23;20186;-82
2023/04/16 14:06:06;;;;;;;13.93;11.40;;;;;;;7.69;100.00;95871.81;6150816;23;20222;-82
2023/04/16 14:08:43;;;;;;;16.23;12.10;;;;;;;7.64;100.00;95879.09;6182524;23;20158;-82
2023/04/16 14:20:21;;;;;;;21.03;12.67;;;;;;;7.57;100.00;95872.75;6135798;23;20253;-82
2023/04/16 15:02:38;;;;;;;17.93;14.50;;;;;;;7.45;100.00;95869.38;6128124;23;20194;-86
2023/04/16 17:17:42;;;;;;;53.33;32.97;;;;;;;7.32;100.00;95921.16;6150292;23;20197;-81
2023/04/16 17:20:45;;;;;;;49.00;30.30;;;;;;;7.33;100.00;95920.25;6127299;23;20187;-85
2023/04/16 21:46:34;;;;;;;54.73;33.30;;;;;;;7.44;100.00;95981.44;6127010;23;20262;-83
2023/04/16 21:49:05;;;;;;;58.43;35.50;;;;;;;7.38;100.00;95982.72;6098543;23;20161;-85
